createdAt,value
2019-04-10T00:01:49.192Z,58.57
2019-04-10T00:04:18.967Z,58.79
2019-04-10T00:06:48.703Z,58.92
2019-04-10T00:09:19.384Z,58.92
2019-04-10T00:11:49.354Z,58.95
2019-04-10T00:14:18.993Z,59.16
2019-04-10T00:16:48.899Z,59.34
2019-04-10T00:19:18.521Z,59.44
2019-04-10T00:21:49.411Z,59.37
2019-04-10T00:24:19.855Z,59.47
2019-04-10T00:26:50.110Z,59.76
2019-04-10T00:29:20.328Z,59.70
2019-04-10T00:31:50.779Z,59.79
2019-04-10T00:34:21.212Z,60.20
2019-04-10T00:36:51.352Z,60.23
2019-04-10T00:39:22.249Z,60.24
2019-04-10T00:41:52.600Z,60.30
2019-04-10T00:44:22.278Z,60.31
2019-04-10T00:46:52.783Z,60.48
2019-04-10T00:49:22.478Z,60.74
2019-04-10T00:51:52.105Z,60.74
2019-04-10T00:54:21.782Z,60.99
2019-04-10T00:56:51.414Z,61.09
2019-04-10T00:59:21.015Z,61.32
2019-04-10T01:01:50.631Z,61.27
2019-04-10T01:04:20.377Z,61.36
2019-04-10T01:06:50.439Z,61.58
2019-04-10T01:09:20.215Z,61.68
2019-04-10T01:11:49.914Z,61.53
2019-04-10T01:14:19.502Z,61.74
2019-04-10T01:16:49.451Z,61.51
2019-04-10T01:19:19.613Z,61.37
2019-04-10T01:21:49.294Z,61.39
2019-04-10T01:24:19.592Z,61.48
2019-04-10T01:26:49.654Z,61.70
2019-04-10T01:29:19.707Z,61.88
2019-04-10T01:31:49.346Z,62.02
2019-04-10T01:34:19.063Z,62.08
2019-04-10T01:36:48.671Z,62.29
2019-04-10T01:39:22.404Z,62.30
2019-04-10T01:41:52.304Z,62.38
2019-04-10T01:44:22.753Z,62.54
2019-04-10T01:46:52.953Z,62.65
2019-04-10T01:49:23.595Z,62.68
2019-04-10T01:51:53.406Z,62.63
2019-04-10T01:54:23.008Z,62.47
2019-04-10T01:56:52.609Z,62.41
2019-04-10T01:59:23.683Z,62.48
2019-04-10T02:01:58.739Z,62.65
2019-04-10T02:04:28.969Z,62.61
2019-04-10T02:06:58.596Z,62.75
2019-04-10T02:09:28.186Z,62.84
2019-04-10T02:11:58.530Z,62.89
2019-04-10T02:14:30.015Z,62.93
2019-04-10T02:16:59.708Z,63.13
2019-04-10T02:19:30.200Z,63.13
2019-04-10T02:22:00.290Z,63.06
2019-04-10T02:24:29.976Z,62.96
2019-04-10T02:27:00.278Z,63.12
2019-04-10T02:29:29.992Z,63.22
2019-04-10T02:31:59.938Z,63.41
2019-04-10T02:34:30.767Z,63.62
2019-04-10T02:37:00.746Z,63.72
2019-04-10T02:39:38.159Z,63.87
2019-04-10T02:42:02.943Z,64.14
2019-04-10T02:44:33.100Z,63.96
2019-04-10T02:47:04.407Z,64.08
2019-04-10T02:49:34.190Z,64.23
2019-04-10T02:52:04.149Z,64.32
2019-04-10T02:54:35.539Z,64.40
2019-04-10T02:57:05.655Z,64.52
2019-04-10T02:59:35.622Z,64.42
2019-04-10T03:02:06.420Z,64.62
2019-04-10T03:04:37.247Z,64.68
2019-04-10T03:07:07.613Z,64.59
2019-04-10T03:09:52.897Z,64.54
2019-04-10T03:12:10.459Z,64.71
2019-04-10T03:14:41.509Z,64.70
2019-04-10T03:17:12.243Z,64.70
2019-04-10T03:19:41.978Z,64.75
2019-04-10T03:22:12.453Z,64.78
2019-04-10T03:24:42.064Z,64.83
2019-04-10T03:27:12.298Z,64.60
2019-04-10T03:29:42.285Z,64.67
2019-04-10T03:32:34.719Z,64.79
2019-04-10T03:35:06.145Z,64.76
2019-04-10T03:37:36.190Z,64.84
2019-04-10T03:40:07.582Z,64.90
2019-04-10T03:42:37.210Z,64.88
2019-04-10T03:45:07.745Z,65.08
2019-04-10T03:47:37.721Z,65.23
2019-04-10T03:50:08.670Z,65.37
2019-04-10T03:52:38.448Z,65.34
2019-04-10T03:55:08.424Z,65.48
2019-04-10T03:57:38.560Z,65.53
2019-04-10T04:00:09.932Z,65.63
2019-04-10T04:02:40.039Z,65.63
2019-04-10T04:05:10.641Z,65.65
2019-04-10T04:07:41.075Z,65.76
2019-04-10T04:10:11.149Z,66.19
2019-04-10T04:12:40.781Z,66.25
2019-04-10T04:15:11.483Z,66.32
2019-04-10T04:17:41.159Z,66.31
2019-04-10T04:20:11.192Z,66.31
2019-04-10T04:22:41.142Z,66.29
2019-04-10T04:25:11.111Z,66.42
2019-04-10T04:27:40.730Z,66.52
2019-04-10T04:30:10.842Z,66.38
2019-04-10T04:32:40.458Z,66.30
2019-04-10T04:35:10.986Z,66.20
2019-04-10T04:37:40.720Z,66.34
2019-04-10T04:40:11.132Z,66.15
2019-04-10T04:42:40.824Z,65.76
2019-04-10T04:45:10.820Z,65.65
2019-04-10T04:47:41.326Z,65.42
2019-04-10T04:50:11.917Z,65.32
2019-04-10T04:52:41.544Z,65.11
2019-04-10T04:55:12.239Z,64.97
2019-04-10T04:57:42.333Z,65.06
2019-04-10T05:00:13.189Z,64.97
2019-04-10T05:02:42.900Z,64.76
2019-04-10T05:05:12.657Z,64.68
2019-04-10T05:07:54.193Z,64.43
2019-04-10T05:10:15.253Z,64.19
2019-04-10T05:12:45.226Z,63.64
2019-04-10T05:15:15.065Z,63.40
2019-04-10T05:17:44.971Z,63.07
2019-04-10T05:20:14.863Z,62.58
2019-04-10T05:22:44.477Z,62.50
2019-04-10T05:25:14.068Z,62.46
2019-04-10T05:27:43.706Z,62.46
2019-04-10T05:30:14.211Z,62.20
2019-04-10T05:32:43.836Z,61.92
2019-04-10T05:35:13.515Z,61.52
2019-04-10T05:37:43.540Z,61.30
2019-04-10T05:40:13.794Z,60.94
2019-04-10T05:42:43.396Z,60.64
2019-04-10T05:45:13.089Z,60.47
2019-04-10T05:47:42.683Z,59.84
2019-04-10T05:50:13.041Z,59.02
2019-04-10T05:52:43.069Z,57.86
2019-04-10T05:55:13.855Z,56.92
2019-04-10T05:57:43.566Z,56.84
2019-04-10T06:00:14.870Z,56.88
2019-04-10T06:02:44.466Z,56.70
2019-04-10T06:05:14.221Z,56.24
2019-04-10T06:07:43.841Z,55.93
2019-04-10T06:10:13.771Z,55.94
2019-04-10T06:12:44.666Z,55.68
2019-04-10T06:15:14.798Z,55.08
2019-04-10T06:17:44.908Z,54.78
2019-04-10T06:20:15.626Z,54.74
2019-04-10T06:22:45.552Z,54.92
2019-04-10T06:25:16.214Z,54.63
2019-04-10T06:27:46.137Z,54.22
2019-04-10T06:30:16.097Z,53.41
2019-04-10T06:32:45.711Z,52.36
2019-04-10T06:35:16.951Z,51.85
2019-04-10T06:37:46.544Z,51.01
2019-04-10T06:40:19.724Z,50.60
2019-04-10T06:42:52.052Z,50.13
2019-04-10T06:45:19.848Z,49.48
2019-04-10T06:47:49.496Z,48.73
2019-04-10T06:50:21.054Z,47.27
2019-04-10T06:52:51.327Z,46.79
2019-04-10T06:55:21.641Z,45.71
2019-04-10T06:57:57.326Z,45.07
2019-04-10T07:00:23.049Z,44.57
2019-04-10T07:02:52.771Z,44.82
2019-04-10T07:05:22.385Z,45.41
2019-04-10T07:07:57.751Z,45.87
2019-04-10T07:10:34.343Z,46.07
2019-04-10T07:12:57.462Z,46.05
2019-04-10T07:15:27.357Z,46.15
2019-04-10T07:17:57.044Z,45.55
2019-04-10T07:20:27.140Z,45.26
2019-04-10T07:22:58.062Z,45.14
2019-04-10T07:25:29.885Z,44.96
2019-04-10T07:28:01.218Z,44.45
2019-04-10T07:30:31.862Z,44.12
2019-04-10T07:33:01.548Z,43.51
2019-04-10T07:35:34.004Z,43.03
2019-04-10T07:38:02.540Z,42.75
2019-04-10T07:40:35.717Z,42.02
2019-04-10T07:43:04.215Z,41.56
2019-04-10T07:45:35.398Z,39.51
2019-04-10T07:48:05.200Z,37.86
2019-04-10T07:50:34.902Z,36.13
2019-04-10T07:53:04.670Z,34.43
2019-04-10T07:55:34.293Z,33.29
2019-04-10T07:58:04.860Z,31.72
2019-04-10T08:00:34.560Z,30.23
2019-04-10T08:03:04.472Z,29.35
2019-04-10T08:05:34.325Z,28.17
2019-04-10T08:08:05.215Z,27.33
2019-04-10T08:10:34.968Z,27.29
2019-04-10T08:13:04.665Z,26.35
2019-04-10T08:15:34.268Z,25.69
2019-04-10T08:18:04.589Z,24.68
2019-04-10T08:20:34.740Z,23.54
2019-04-10T08:23:07.251Z,22.45
2019-04-10T08:25:35.912Z,22.54
2019-04-10T08:28:05.697Z,21.61
2019-04-10T08:30:36.227Z,21.39
2019-04-10T08:33:06.174Z,20.51
2019-04-10T08:35:35.888Z,19.63
2019-04-10T08:38:05.546Z,20.00
2019-04-10T08:40:36.205Z,19.40
2019-04-10T08:43:06.278Z,19.56
2019-04-10T08:45:44.931Z,19.10
2019-04-10T08:48:08.057Z,18.32
2019-04-10T08:50:38.603Z,17.99
2019-04-10T08:53:08.261Z,17.95
2019-04-10T08:55:37.917Z,17.36
2019-04-10T08:58:08.330Z,17.06
2019-04-10T09:00:38.054Z,16.64
2019-04-10T09:03:08.734Z,16.56
2019-04-10T09:05:38.567Z,16.12
2019-04-10T09:08:08.604Z,15.44
2019-04-10T09:10:38.524Z,14.87
2019-04-10T09:13:08.420Z,14.48
2019-04-10T09:15:38.244Z,14.12
2019-04-10T09:18:08.269Z,13.73
2019-04-10T09:20:39.276Z,13.34
2019-04-10T09:23:21.492Z,13.19
2019-04-10T09:25:40.225Z,13.16
2019-04-10T09:28:10.523Z,13.57
2019-04-10T09:30:40.771Z,13.51
2019-04-10T09:33:21.207Z,13.24
2019-04-10T09:35:42.224Z,12.41
2019-04-10T09:38:12.724Z,11.43
2019-04-10T09:40:42.600Z,11.06
2019-04-10T09:43:14.169Z,11.37
2019-04-10T09:45:43.779Z,10.98
2019-04-10T09:48:13.440Z,11.20
2019-04-10T09:50:43.891Z,11.19
2019-04-10T09:53:13.543Z,11.22
2019-04-10T09:55:43.191Z,11.27
2019-04-10T09:58:13.256Z,10.78
2019-04-10T10:00:43.758Z,10.56
2019-04-10T10:03:13.567Z,10.50
2019-04-10T10:05:43.178Z,10.56
2019-04-10T10:08:12.783Z,10.21
2019-04-10T10:10:42.606Z,9.24
2019-04-10T10:13:13.067Z,8.81
2019-04-10T10:15:43.213Z,8.61
2019-04-10T10:18:13.062Z,7.86
2019-04-10T10:20:43.997Z,8.01
2019-04-10T10:23:13.759Z,8.05
2019-04-10T10:25:43.717Z,7.89
2019-04-10T10:28:13.382Z,7.56
2019-04-10T10:30:43.981Z,7.42
2019-04-10T10:33:13.842Z,7.00
2019-04-10T10:35:43.437Z,7.52
2019-04-10T10:38:13.047Z,7.31
2019-04-10T10:40:43.649Z,6.81
2019-04-10T10:43:13.336Z,7.09
2019-04-10T10:45:43.008Z,7.27
2019-04-10T10:48:13.697Z,6.98
2019-04-10T10:50:43.629Z,6.91
2019-04-10T10:53:14.261Z,6.56
2019-04-10T10:55:43.977Z,6.58
2019-04-10T10:58:13.598Z,6.28
2019-04-10T11:00:44.321Z,6.52
2019-04-10T11:03:16.220Z,6.29
2019-04-10T11:05:46.481Z,6.12
2019-04-10T11:08:17.458Z,6.12
2019-04-10T11:10:50.693Z,5.69
2019-04-10T11:13:18.914Z,5.34
2019-04-10T11:15:48.601Z,5.59
2019-04-10T11:18:18.197Z,6.05
2019-04-10T11:20:48.338Z,6.17
2019-04-10T11:23:18.236Z,5.81
2019-04-10T11:25:47.990Z,5.85
2019-04-10T11:28:18.684Z,5.40
2019-04-10T11:30:49.184Z,5.16
2019-04-10T11:33:18.905Z,5.14
2019-04-10T11:35:48.503Z,5.14
2019-04-10T11:38:19.218Z,5.42
2019-04-10T11:40:49.798Z,5.41
2019-04-10T11:43:19.500Z,5.04
2019-04-10T11:45:52.835Z,4.91
2019-04-10T11:48:20.440Z,4.67
2019-04-10T11:50:51.042Z,4.41
2019-04-10T11:53:21.555Z,4.34
2019-04-10T11:55:53.565Z,4.22
2019-04-10T11:58:25.257Z,4.84
2019-04-10T12:00:56.397Z,4.64
2019-04-10T12:03:27.006Z,4.61
2019-04-10T12:05:57.743Z,4.61
2019-04-10T12:08:50.310Z,4.81
2019-04-10T12:13:28.968Z,4.80
2019-04-10T12:15:58.934Z,4.54
2019-04-10T12:18:30.778Z,4.55
2019-04-10T12:21:00.367Z,4.60
2019-04-10T12:23:30.006Z,4.49
2019-04-10T12:25:59.612Z,3.98
2019-04-10T12:28:29.846Z,3.86
2019-04-10T12:30:59.559Z,3.99
2019-04-10T12:33:29.689Z,4.15
2019-04-10T12:36:00.390Z,4.17
2019-04-10T12:38:30.017Z,3.98
2019-04-10T12:40:59.633Z,3.79
2019-04-10T12:43:29.317Z,3.52
2019-04-10T12:45:58.931Z,3.62
2019-04-10T12:48:28.597Z,3.77
2019-04-10T12:50:58.223Z,3.91
2019-04-10T12:53:27.829Z,3.89
2019-04-10T12:55:57.804Z,3.97
2019-04-10T12:58:27.476Z,3.99
2019-04-10T13:00:58.305Z,3.91
2019-04-10T13:03:29.297Z,3.96
2019-04-10T13:05:59.783Z,4.21
2019-04-10T13:08:48.301Z,4.28
2019-04-10T13:11:01.127Z,3.97
2019-04-10T13:13:31.134Z,3.90
2019-04-10T13:16:01.477Z,3.76
2019-04-10T13:18:32.147Z,3.73
2019-04-10T13:21:02.113Z,3.59
2019-04-10T13:23:32.963Z,4.32
2019-04-10T13:26:05.422Z,4.56
2019-04-10T13:28:34.098Z,4.37
2019-04-10T13:31:03.719Z,4.14
2019-04-10T13:33:33.495Z,4.51
2019-04-10T13:36:03.174Z,4.82
2019-04-10T13:38:34.481Z,4.73
2019-04-10T13:41:04.150Z,4.24
2019-04-10T13:43:33.914Z,4.30
2019-04-10T13:46:04.594Z,5.03
2019-04-10T13:48:35.507Z,4.77
2019-04-10T13:51:05.714Z,4.94
2019-04-10T13:53:35.320Z,5.00
2019-04-10T13:56:06.589Z,4.90
2019-04-10T13:58:36.348Z,5.08
2019-04-10T14:01:09.378Z,5.13
2019-04-10T14:03:41.536Z,5.40
2019-04-10T14:06:11.645Z,7.13
2019-04-10T14:08:58.614Z,6.83
2019-04-10T14:11:13.168Z,6.90
2019-04-10T14:13:42.859Z,6.56
2019-04-10T14:16:12.795Z,6.36
2019-04-10T14:18:43.145Z,6.42
2019-04-10T14:21:15.577Z,6.23
2019-04-10T14:23:45.153Z,6.98
2019-04-10T14:26:25.276Z,8.20
2019-04-10T14:28:55.465Z,8.95
2019-04-10T14:31:29.711Z,10.11
2019-04-10T14:33:59.328Z,10.53
2019-04-10T14:36:29.783Z,10.65
2019-04-10T14:39:10.231Z,11.89
2019-04-10T14:41:30.793Z,13.67
2019-04-10T14:44:00.409Z,14.54
2019-04-10T14:46:30.024Z,15.60
2019-04-10T14:49:00.465Z,16.35
2019-04-10T14:51:30.426Z,17.90
2019-04-10T14:54:00.100Z,18.45
2019-04-10T14:56:30.484Z,19.50
2019-04-10T14:59:01.070Z,20.16
2019-04-10T15:01:31.610Z,20.42
2019-04-10T15:04:01.255Z,20.52
2019-04-10T15:06:31.207Z,21.02
2019-04-10T15:09:00.923Z,21.94
2019-04-10T15:11:30.834Z,22.11
2019-04-10T15:14:01.301Z,22.49
2019-04-10T15:16:31.581Z,22.24
2019-04-10T15:19:02.512Z,22.93
2019-04-10T15:21:32.405Z,22.95
2019-04-10T15:24:02.026Z,22.93
2019-04-10T15:26:32.342Z,23.21
2019-04-10T15:29:02.059Z,23.35
2019-04-10T15:31:31.681Z,24.71
2019-04-10T15:34:01.605Z,24.07
2019-04-10T15:36:31.777Z,24.39
2019-04-10T15:39:02.845Z,24.14
2019-04-10T15:41:32.908Z,24.78
2019-04-10T15:44:02.608Z,24.57
2019-04-10T15:46:33.122Z,24.21
2019-04-10T15:49:02.846Z,24.39
2019-04-10T15:51:32.477Z,24.27
2019-04-10T15:54:02.086Z,24.62
2019-04-10T15:56:31.902Z,24.73
2019-04-10T15:59:01.522Z,24.31
2019-04-10T16:01:31.179Z,24.64
2019-04-10T16:04:01.123Z,24.62
2019-04-10T16:06:31.386Z,25.15
2019-04-10T16:09:01.092Z,25.19
2019-04-10T16:11:32.603Z,25.20
2019-04-10T16:14:15.718Z,25.66
2019-04-10T16:16:35.277Z,25.73
2019-04-10T16:19:18.399Z,25.77
2019-04-10T16:21:48.018Z,25.79
2019-04-10T16:24:18.781Z,25.88
2019-04-10T16:26:49.550Z,25.83
2019-04-10T16:29:20.293Z,26.19
2019-04-10T16:31:50.323Z,25.94
2019-04-10T16:34:20.741Z,26.04
2019-04-10T16:36:50.368Z,26.09
2019-04-10T16:39:20.051Z,26.42
2019-04-10T16:41:50.348Z,26.40
2019-04-10T16:44:21.371Z,26.50
2019-04-10T16:46:51.690Z,26.75
2019-04-10T16:49:23.091Z,26.83
2019-04-10T16:51:52.728Z,26.74
2019-04-10T16:54:22.361Z,27.18
2019-04-10T16:56:52.053Z,27.10
2019-04-10T16:59:21.635Z,27.21
2019-04-10T17:01:51.554Z,27.47
2019-04-10T17:04:21.193Z,28.70
2019-04-10T17:06:50.808Z,29.16
2019-04-10T17:09:22.814Z,29.45
2019-04-10T17:11:53.740Z,28.68
2019-04-10T17:14:24.219Z,28.53
2019-04-10T17:16:53.829Z,28.54
2019-04-10T17:19:23.731Z,29.40
2019-04-10T17:21:54.282Z,29.11
2019-04-10T17:24:25.067Z,29.46
2019-04-10T17:26:55.165Z,29.75
2019-04-10T17:29:25.132Z,30.10
2019-04-10T17:31:55.025Z,30.20
2019-04-10T17:34:25.002Z,30.40
2019-04-10T17:36:55.429Z,30.58
2019-04-10T17:39:27.172Z,30.53
2019-04-10T17:41:57.807Z,30.59
2019-04-10T17:44:27.569Z,30.80
2019-04-10T17:46:57.615Z,31.12
2019-04-10T17:49:29.661Z,31.40
2019-04-10T17:52:00.471Z,31.75
2019-04-10T17:54:31.438Z,31.99
2019-04-10T17:57:02.223Z,32.09
2019-04-10T17:59:32.373Z,32.07
2019-04-10T18:02:03.717Z,32.11
2019-04-10T18:04:33.879Z,32.99
2019-04-10T18:07:03.936Z,32.81
2019-04-10T18:09:34.707Z,32.98
2019-04-10T18:12:06.036Z,33.17
2019-04-10T18:14:37.933Z,33.56
2019-04-10T18:17:07.919Z,33.84
2019-04-10T18:19:40.106Z,34.12
2019-04-10T18:22:10.122Z,34.14
2019-04-10T18:24:40.138Z,34.18
2019-04-10T18:27:09.786Z,34.60
2019-04-10T18:29:39.485Z,34.86
2019-04-10T18:32:09.706Z,34.95
2019-04-10T18:34:40.272Z,35.04
2019-04-10T18:37:11.084Z,35.76
2019-04-10T18:39:41.306Z,35.48
2019-04-10T18:42:11.842Z,36.13
2019-04-10T18:44:41.646Z,35.73
2019-04-10T18:47:11.244Z,35.82
2019-04-10T18:49:40.853Z,35.97
2019-04-10T18:52:10.922Z,35.78
2019-04-10T18:54:41.525Z,35.97
2019-04-10T18:57:11.229Z,35.99
2019-04-10T18:59:42.871Z,36.15
2019-04-10T19:02:14.431Z,36.44
2019-04-10T19:04:49.458Z,36.48
2019-04-10T19:07:19.294Z,36.56
2019-04-10T19:09:49.165Z,36.66
2019-04-10T19:12:18.846Z,36.88
2019-04-10T19:14:48.678Z,37.16
2019-04-10T19:17:19.041Z,37.42
2019-04-10T19:19:48.633Z,37.25
2019-04-10T19:22:20.291Z,37.27
2019-04-10T19:24:50.326Z,37.33
2019-04-10T19:27:20.135Z,37.59
2019-04-10T19:29:50.702Z,37.71
2019-04-10T19:32:22.631Z,37.55
2019-04-10T19:34:52.276Z,37.29
2019-04-10T19:37:22.891Z,37.49
2019-04-10T19:39:52.668Z,37.86
2019-04-10T19:42:22.253Z,38.09
2019-04-10T19:44:53.056Z,37.99
2019-04-10T19:47:22.775Z,38.15
2019-04-10T19:49:53.013Z,38.29
2019-04-10T19:52:22.771Z,38.33
2019-04-10T19:54:53.389Z,38.32
2019-04-10T19:57:23.739Z,38.45
2019-04-10T19:59:53.384Z,38.51
2019-04-10T20:02:23.152Z,38.58
2019-04-10T20:04:52.835Z,38.73
2019-04-10T20:07:22.391Z,38.80
2019-04-10T20:09:52.780Z,38.92
2019-04-10T20:12:22.476Z,38.84
2019-04-10T20:14:53.243Z,39.11
2019-04-10T20:17:23.961Z,39.65
2019-04-10T20:19:55.657Z,39.25
2019-04-10T20:22:25.227Z,39.30
2019-04-10T20:24:56.858Z,39.47
2019-04-10T20:27:26.479Z,40.11
2019-04-10T20:29:57.271Z,39.43
2019-04-10T20:32:27.989Z,39.70
2019-04-10T20:34:58.023Z,39.67
2019-04-10T20:37:29.033Z,39.85
2019-04-10T20:39:58.850Z,39.55
2019-04-10T20:42:28.449Z,39.58
2019-04-10T20:44:58.892Z,39.66
2019-04-10T20:47:28.805Z,39.72
2019-04-10T20:49:59.498Z,39.77
2019-04-10T20:52:30.397Z,39.96
2019-04-10T20:55:01.395Z,39.80
2019-04-10T20:57:31.951Z,40.28
2019-04-10T21:00:01.855Z,40.34
2019-04-10T21:02:31.514Z,39.88
2019-04-10T21:05:06.077Z,39.84
2019-04-10T21:07:32.492Z,40.18
2019-04-10T21:10:02.102Z,40.30
2019-04-10T21:12:32.255Z,40.40
2019-04-10T21:15:01.912Z,40.39
2019-04-10T21:17:31.936Z,40.61
2019-04-10T21:20:02.851Z,40.35
2019-04-10T21:22:32.793Z,40.50
2019-04-10T21:25:02.885Z,40.79
2019-04-10T21:27:32.505Z,40.55
2019-04-10T21:30:15.834Z,40.99
2019-04-10T21:32:56.945Z,41.05
2019-04-10T21:35:29.437Z,41.22
2019-04-10T21:37:59.180Z,41.04
2019-04-10T21:40:28.939Z,41.39
2019-04-10T21:42:59.816Z,41.46
2019-04-10T21:45:29.848Z,41.82
2019-04-10T21:47:59.977Z,41.52
2019-04-10T21:50:29.605Z,41.73
2019-04-10T21:52:59.657Z,41.94
2019-04-10T21:55:29.387Z,41.96
2019-04-10T21:57:59.578Z,41.96
2019-04-10T22:00:36.858Z,42.09
2019-04-10T22:03:07.058Z,42.17
2019-04-10T22:05:38.916Z,42.34
2019-04-10T22:08:13.014Z,42.67
2019-04-10T22:10:44.343Z,42.56
2019-04-10T22:13:14.002Z,42.88
2019-04-10T22:15:45.317Z,42.84
2019-04-10T22:18:14.990Z,43.00
2019-04-10T22:20:44.732Z,43.00
2019-04-10T22:23:14.446Z,43.00
2019-04-10T22:25:44.056Z,43.18
2019-04-10T22:28:14.949Z,43.27
2019-04-10T22:30:45.692Z,43.37
2019-04-10T22:33:16.012Z,43.36
2019-04-10T22:35:46.299Z,43.34
2019-04-10T22:38:15.961Z,43.30
2019-04-10T22:40:46.238Z,43.38
2019-04-10T22:43:16.045Z,43.26
2019-04-10T22:45:46.641Z,43.24
2019-04-10T22:48:16.848Z,43.49
2019-04-10T22:50:47.223Z,43.64
2019-04-10T22:53:17.504Z,43.46
2019-04-10T22:55:47.213Z,43.67
2019-04-10T22:58:17.089Z,43.84
2019-04-10T23:00:48.303Z,43.89
2019-04-10T23:03:18.153Z,44.08
2019-04-10T23:05:48.936Z,44.00
2019-04-10T23:08:19.750Z,44.22
2019-04-10T23:10:49.447Z,44.46
2019-04-10T23:13:19.056Z,44.29
2019-04-10T23:15:49.451Z,44.17
2019-04-10T23:18:19.250Z,44.18
2019-04-10T23:20:48.835Z,44.55
2019-04-10T23:23:18.962Z,44.70
2019-04-10T23:25:48.864Z,44.87
2019-04-10T23:28:19.483Z,44.86
2019-04-10T23:30:49.270Z,45.10
2019-04-10T23:33:19.694Z,45.25
2019-04-10T23:35:51.822Z,45.31
2019-04-10T23:38:21.634Z,45.44
2019-04-10T23:40:51.592Z,45.40
2019-04-10T23:43:22.694Z,45.49
2019-04-10T23:45:53.661Z,45.67
2019-04-10T23:48:23.246Z,45.77
2019-04-10T23:50:52.844Z,45.93
2019-04-10T23:53:22.647Z,46.16
2019-04-10T23:55:52.465Z,46.29
2019-04-10T23:58:22.262Z,46.34
